sensor_id;sensor_type;location;lat;lon;timestamp;P1;durP1;ratioP1;P2;durP2;ratioP2
12476;SDS011;6303;51.504;6.300;2023-07-31T00:02:13;3.35;;;2.45;;
12476;SDS011;6303;51.504;6.300;2023-07-31T00:04:40;2.97;;;2.10;;
12476;SDS011;6303;51.504;6.300;2023-07-31T00:07:09;3.75;;;2.17;;
12476;SDS011;6303;51.504;6.300;2023-07-31T00:09:36;4.15;;;2.50;;
12476;SDS011;6303;51.504;6.300;2023-07-31T00:12:03;4.30;;;2.50;;
12476;SDS011;6303;51.504;6.300;2023-07-31T00:14:31;5.10;;;2.60;;
12476;SDS011;6303;51.504;6.300;2023-07-31T00:16:58;2.97;;;2.67;;
12476;SDS011;6303;51.504;6.300;2023-07-31T00:19:25;4.18;;;2.70;;
12476;SDS011;6303;51.504;6.300;2023-07-31T00:21:53;3.35;;;2.83;;
12476;SDS011;6303;51.504;6.300;2023-07-31T00:24:21;3.80;;;2.70;;
12476;SDS011;6303;51.504;6.300;2023-07-31T00:26:48;4.55;;;2.72;;
12476;SDS011;6303;51.504;6.300;2023-07-31T00:29:15;6.32;;;3.40;;
12476;SDS011;6303;51.504;6.300;2023-07-31T00:31:42;5.75;;;2.97;;
12476;SDS011;6303;51.504;6.300;2023-07-31T00:34:09;5.32;;;2.72;;
12476;SDS011;6303;51.504;6.300;2023-07-31T00:36:36;5.30;;;3.25;;
12476;SDS011;6303;51.504;6.300;2023-07-31T00:39:03;3.97;;;2.80;;
12476;SDS011;6303;51.504;6.300;2023-07-31T00:41:32;4.50;;;3.20;;
12476;SDS011;6303;51.504;6.300;2023-07-31T00:44:00;4.47;;;3.10;;
12476;SDS011;6303;51.504;6.300;2023-07-31T00:46:27;5.82;;;3.47;;
12476;SDS011;6303;51.504;6.300;2023-07-31T00:48:55;4.43;;;2.90;;
12476;SDS011;6303;51.504;6.300;2023-07-31T00:51:23;5.60;;;3.03;;
12476;SDS011;6303;51.504;6.300;2023-07-31T00:53:50;4.55;;;2.97;;
12476;SDS011;6303;51.504;6.300;2023-07-31T00:56:21;6.13;;;3.50;;
12476;SDS011;6303;51.504;6.300;2023-07-31T00:58:51;4.95;;;3.08;;
12476;SDS011;6303;51.504;6.300;2023-07-31T01:01:18;7.45;;;3.35;;
12476;SDS011;6303;51.504;6.300;2023-07-31T01:03:45;5.20;;;3.42;;
12476;SDS011;6303;51.504;6.300;2023-07-31T01:06:14;4.53;;;2.90;;
12476;SDS011;6303;51.504;6.300;2023-07-31T01:08:48;6.40;;;3.38;;
12476;SDS011;6303;51.504;6.300;2023-07-31T01:11:22;5.30;;;3.35;;
12476;SDS011;6303;51.504;6.300;2023-07-31T01:13:55;4.90;;;3.38;;
12476;SDS011;6303;51.504;6.300;2023-07-31T01:16:23;4.30;;;2.80;;
12476;SDS011;6303;51.504;6.300;2023-07-31T01:18:51;5.57;;;3.30;;
12476;SDS011;6303;51.504;6.300;2023-07-31T01:21:23;6.78;;;3.28;;
12476;SDS011;6303;51.504;6.300;2023-07-31T01:24:08;5.25;;;3.30;;
12476;SDS011;6303;51.504;6.300;2023-07-31T01:26:49;4.75;;;3.30;;
12476;SDS011;6303;51.504;6.300;2023-07-31T01:29:24;5.57;;;3.40;;
12476;SDS011;6303;51.504;6.300;2023-07-31T01:31:59;5.57;;;3.10;;
12476;SDS011;6303;51.504;6.300;2023-07-31T01:34:29;5.97;;;3.33;;
12476;SDS011;6303;51.504;6.300;2023-07-31T01:36:57;6.00;;;3.22;;
12476;SDS011;6303;51.504;6.300;2023-07-31T01:39:24;7.10;;;3.08;;
12476;SDS011;6303;51.504;6.300;2023-07-31T01:41:53;4.78;;;2.95;;
12476;SDS011;6303;51.504;6.300;2023-07-31T01:44:20;5.35;;;3.25;;
12476;SDS011;6303;51.504;6.300;2023-07-31T01:46:47;6.47;;;3.53;;
12476;SDS011;6303;51.504;6.300;2023-07-31T01:49:14;5.35;;;2.88;;
12476;SDS011;6303;51.504;6.300;2023-07-31T01:51:41;4.60;;;3.08;;
12476;SDS011;6303;51.504;6.300;2023-07-31T01:54:08;5.53;;;3.20;;
12476;SDS011;6303;51.504;6.300;2023-07-31T01:56:36;4.68;;;3.10;;
12476;SDS011;6303;51.504;6.300;2023-07-31T01:59:05;4.97;;;3.33;;
12476;SDS011;6303;51.504;6.300;2023-07-31T02:01:32;5.63;;;2.95;;
12476;SDS011;6303;51.504;6.300;2023-07-31T02:03:59;5.00;;;3.22;;
12476;SDS011;6303;51.504;6.300;2023-07-31T02:06:26;6.38;;;3.40;;
12476;SDS011;6303;51.504;6.300;2023-07-31T02:08:53;4.18;;;3.15;;
12476;SDS011;6303;51.504;6.300;2023-07-31T02:11:20;5.35;;;2.95;;
12476;SDS011;6303;51.504;6.300;2023-07-31T02:13:48;4.88;;;3.17;;
12476;SDS011;6303;51.504;6.300;2023-07-31T02:16:17;6.40;;;3.47;;
12476;SDS011;6303;51.504;6.300;2023-07-31T02:18:44;6.97;;;3.45;;
12476;SDS011;6303;51.504;6.300;2023-07-31T02:21:11;6.65;;;3.55;;
12476;SDS011;6303;51.504;6.300;2023-07-31T02:23:38;4.85;;;3.40;;
12476;SDS011;6303;51.504;6.300;2023-07-31T02:26:05;7.55;;;3.40;;
12476;SDS011;6303;51.504;6.300;2023-07-31T02:28:32;6.60;;;3.20;;
12476;SDS011;6303;51.504;6.300;2023-07-31T02:30:59;8.10;;;3.70;;
12476;SDS011;6303;51.504;6.300;2023-07-31T02:33:28;4.97;;;3.25;;
12476;SDS011;6303;51.504;6.300;2023-07-31T02:35:55;6.10;;;3.30;;
12476;SDS011;6303;51.504;6.300;2023-07-31T02:38:22;6.38;;;3.40;;
12476;SDS011;6303;51.504;6.300;2023-07-31T02:40:49;5.18;;;3.40;;
12476;SDS011;6303;51.504;6.300;2023-07-31T02:43:16;6.18;;;3.40;;
12476;SDS011;6303;51.504;6.300;2023-07-31T02:45:43;7.28;;;3.70;;
12476;SDS011;6303;51.504;6.300;2023-07-31T02:48:10;7.22;;;3.72;;
12476;SDS011;6303;51.504;6.300;2023-07-31T02:50:39;5.60;;;3.35;;
12476;SDS011;6303;51.504;6.300;2023-07-31T02:53:06;6.43;;;3.88;;
12476;SDS011;6303;51.504;6.300;2023-07-31T02:55:33;6.78;;;3.75;;
12476;SDS011;6303;51.504;6.300;2023-07-31T02:58:00;5.05;;;3.13;;
12476;SDS011;6303;51.504;6.300;2023-07-31T03:00:27;6.03;;;3.42;;
12476;SDS011;6303;51.504;6.300;2023-07-31T03:02:54;5.97;;;3.38;;
12476;SDS011;6303;51.504;6.300;2023-07-31T03:05:21;7.07;;;3.40;;
12476;SDS011;6303;51.504;6.300;2023-07-31T03:07:50;6.60;;;3.85;;
12476;SDS011;6303;51.504;6.300;2023-07-31T03:10:17;6.43;;;3.38;;
12476;SDS011;6303;51.504;6.300;2023-07-31T03:12:46;5.60;;;3.60;;
12476;SDS011;6303;51.504;6.300;2023-07-31T03:15:13;6.65;;;3.33;;
12476;SDS011;6303;51.504;6.300;2023-07-31T03:17:40;5.97;;;3.42;;
12476;SDS011;6303;51.504;6.300;2023-07-31T03:20:08;6.90;;;3.78;;
12476;SDS011;6303;51.504;6.300;2023-07-31T03:22:35;5.90;;;3.75;;
12476;SDS011;6303;51.504;6.300;2023-07-31T03:25:04;5.53;;;3.67;;
12476;SDS011;6303;51.504;6.300;2023-07-31T03:27:32;5.68;;;3.63;;
12476;SDS011;6303;51.504;6.300;2023-07-31T03:29:59;5.68;;;3.40;;
12476;SDS011;6303;51.504;6.300;2023-07-31T03:32:27;5.80;;;3.38;;
12476;SDS011;6303;51.504;6.300;2023-07-31T03:34:54;6.35;;;3.78;;
12476;SDS011;6303;51.504;6.300;2023-07-31T03:37:21;5.50;;;3.55;;
12476;SDS011;6303;51.504;6.300;2023-07-31T03:39:48;5.88;;;3.40;;
12476;SDS011;6303;51.504;6.300;2023-07-31T03:42:17;4.40;;;3.40;;
12476;SDS011;6303;51.504;6.300;2023-07-31T03:44:44;8.15;;;4.03;;
12476;SDS011;6303;51.504;6.300;2023-07-31T03:47:11;6.75;;;3.60;;
12476;SDS011;6303;51.504;6.300;2023-07-31T03:49:38;4.05;;;3.03;;
12476;SDS011;6303;51.504;6.300;2023-07-31T03:52:05;6.13;;;3.85;;
12476;SDS011;6303;51.504;6.300;2023-07-31T03:54:33;5.72;;;3.40;;
12476;SDS011;6303;51.504;6.300;2023-07-31T03:57:00;6.65;;;3.53;;
12476;SDS011;6303;51.504;6.300;2023-07-31T03:59:28;6.20;;;3.58;;
12476;SDS011;6303;51.504;6.300;2023-07-31T04:01:55;5.60;;;3.40;;
12476;SDS011;6303;51.504;6.300;2023-07-31T04:04:22;6.80;;;3.58;;
12476;SDS011;6303;51.504;6.300;2023-07-31T04:06:49;6.72;;;3.80;;
12476;SDS011;6303;51.504;6.300;2023-07-31T04:09:16;6.28;;;3.85;;
12476;SDS011;6303;51.504;6.300;2023-07-31T04:11:43;7.20;;;3.22;;
12476;SDS011;6303;51.504;6.300;2023-07-31T04:14:10;4.82;;;3.20;;
12476;SDS011;6303;51.504;6.300;2023-07-31T04:16:39;6.07;;;3.53;;
12476;SDS011;6303;51.504;6.300;2023-07-31T04:19:06;6.40;;;3.47;;
12476;SDS011;6303;51.504;6.300;2023-07-31T04:21:33;7.07;;;3.38;;
12476;SDS011;6303;51.504;6.300;2023-07-31T04:24:00;6.03;;;3.70;;
12476;SDS011;6303;51.504;6.300;2023-07-31T04:26:27;7.28;;;3.35;;
12476;SDS011;6303;51.504;6.300;2023-07-31T04:28:54;6.45;;;3.60;;
12476;SDS011;6303;51.504;6.300;2023-07-31T04:31:21;5.13;;;3.90;;
12476;SDS011;6303;51.504;6.300;2023-07-31T04:33:49;5.93;;;3.35;;
12476;SDS011;6303;51.504;6.300;2023-07-31T04:36:16;5.78;;;3.33;;
12476;SDS011;6303;51.504;6.300;2023-07-31T04:38:43;5.22;;;3.25;;
12476;SDS011;6303;51.504;6.300;2023-07-31T04:41:10;5.35;;;2.95;;
12476;SDS011;6303;51.504;6.300;2023-07-31T04:43:38;4.90;;;2.80;;
12476;SDS011;6303;51.504;6.300;2023-07-31T04:46:06;6.38;;;3.30;;
12476;SDS011;6303;51.504;6.300;2023-07-31T04:48:33;7.15;;;3.67;;
12476;SDS011;6303;51.504;6.300;2023-07-31T04:51:01;8.77;;;3.72;;
12476;SDS011;6303;51.504;6.300;2023-07-31T04:53:28;6.78;;;3.60;;
12476;SDS011;6303;51.504;6.300;2023-07-31T04:55:55;7.13;;;3.83;;
12476;SDS011;6303;51.504;6.300;2023-07-31T04:58:22;7.60;;;3.47;;
12476;SDS011;6303;51.504;6.300;2023-07-31T05:00:49;6.75;;;3.20;;
12476;SDS011;6303;51.504;6.300;2023-07-31T05:03:17;6.15;;;3.38;;
12476;SDS011;6303;51.504;6.300;2023-07-31T05:05:44;6.65;;;3.58;;
12476;SDS011;6303;51.504;6.300;2023-07-31T05:08:12;26.67;;;7.55;;
12476;SDS011;6303;51.504;6.300;2023-07-31T05:10:39;34.45;;;10.95;;
12476;SDS011;6303;51.504;6.300;2023-07-31T05:13:06;28.52;;;9.07;;
12476;SDS011;6303;51.504;6.300;2023-07-31T05:15:33;19.13;;;6.70;;
12476;SDS011;6303;51.504;6.300;2023-07-31T05:18:00;16.95;;;5.95;;
12476;SDS011;6303;51.504;6.300;2023-07-31T05:20:27;12.07;;;5.20;;
12476;SDS011;6303;51.504;6.300;2023-07-31T05:22:54;17.40;;;5.72;;
12476;SDS011;6303;51.504;6.300;2023-07-31T05:25:23;15.02;;;5.68;;
12476;SDS011;6303;51.504;6.300;2023-07-31T05:27:50;14.70;;;5.38;;
12476;SDS011;6303;51.504;6.300;2023-07-31T05:30:17;11.52;;;5.35;;
12476;SDS011;6303;51.504;6.300;2023-07-31T05:32:44;13.35;;;4.95;;
12476;SDS011;6303;51.504;6.300;2023-07-31T05:35:11;19.52;;;5.32;;
12476;SDS011;6303;51.504;6.300;2023-07-31T05:37:38;11.13;;;4.75;;
12476;SDS011;6303;51.504;6.300;2023-07-31T05:40:05;13.02;;;4.95;;
12476;SDS011;6303;51.504;6.300;2023-07-31T05:42:35;8.70;;;4.53;;
12476;SDS011;6303;51.504;6.300;2023-07-31T05:45:04;9.88;;;3.83;;
12476;SDS011;6303;51.504;6.300;2023-07-31T05:47:32;8.45;;;4.32;;
12476;SDS011;6303;51.504;6.300;2023-07-31T05:49:59;9.32;;;4.30;;
12476;SDS011;6303;51.504;6.300;2023-07-31T05:52:26;10.27;;;4.60;;
12476;SDS011;6303;51.504;6.300;2023-07-31T05:54:54;9.18;;;4.30;;
12476;SDS011;6303;51.504;6.300;2023-07-31T05:57:21;10.48;;;4.82;;
12476;SDS011;6303;51.504;6.300;2023-07-31T05:59:49;10.13;;;4.40;;
12476;SDS011;6303;51.504;6.300;2023-07-31T06:02:18;7.53;;;4.35;;
12476;SDS011;6303;51.504;6.300;2023-07-31T06:04:45;8.60;;;4.30;;
12476;SDS011;6303;51.504;6.300;2023-07-31T06:07:12;7.30;;;3.88;;
12476;SDS011;6303;51.504;6.300;2023-07-31T06:09:39;9.73;;;4.00;;
12476;SDS011;6303;51.504;6.300;2023-07-31T06:12:06;6.45;;;3.45;;
12476;SDS011;6303;51.504;6.300;2023-07-31T06:14:34;7.82;;;4.10;;
12476;SDS011;6303;51.504;6.300;2023-07-31T06:17:02;8.88;;;4.15;;
12476;SDS011;6303;51.504;6.300;2023-07-31T06:19:29;7.32;;;4.32;;
12476;SDS011;6303;51.504;6.300;2023-07-31T06:21:56;6.25;;;3.53;;
12476;SDS011;6303;51.504;6.300;2023-07-31T06:24:23;6.82;;;4.07;;
12476;SDS011;6303;51.504;6.300;2023-07-31T06:26:50;6.13;;;3.70;;
12476;SDS011;6303;51.504;6.300;2023-07-31T06:29:17;6.10;;;3.95;;
12476;SDS011;6303;51.504;6.300;2023-07-31T06:31:44;7.70;;;4.07;;
12476;SDS011;6303;51.504;6.300;2023-07-31T06:34:13;4.80;;;3.53;;
12476;SDS011;6303;51.504;6.300;2023-07-31T06:36:40;5.47;;;3.47;;
12476;SDS011;6303;51.504;6.300;2023-07-31T06:39:07;5.32;;;3.60;;
12476;SDS011;6303;51.504;6.300;2023-07-31T06:41:34;4.78;;;3.30;;
12476;SDS011;6303;51.504;6.300;2023-07-31T06:44:05;6.65;;;3.42;;
12476;SDS011;6303;51.504;6.300;2023-07-31T06:46:32;5.50;;;3.22;;
12476;SDS011;6303;51.504;6.300;2023-07-31T06:48:59;3.67;;;2.75;;
12476;SDS011;6303;51.504;6.300;2023-07-31T06:51:27;6.15;;;3.78;;
12476;SDS011;6303;51.504;6.300;2023-07-31T06:53:56;5.30;;;2.97;;
12476;SDS011;6303;51.504;6.300;2023-07-31T06:56:23;4.20;;;2.95;;
12476;SDS011;6303;51.504;6.300;2023-07-31T06:58:51;7.05;;;3.10;;
12476;SDS011;6303;51.504;6.300;2023-07-31T07:01:18;5.85;;;3.30;;
12476;SDS011;6303;51.504;6.300;2023-07-31T07:03:45;3.92;;;2.92;;
12476;SDS011;6303;51.504;6.300;2023-07-31T07:06:12;5.10;;;3.00;;
12476;SDS011;6303;51.504;6.300;2023-07-31T07:08:40;4.25;;;3.42;;
12476;SDS011;6303;51.504;6.300;2023-07-31T07:11:07;4.43;;;3.15;;
12476;SDS011;6303;51.504;6.300;2023-07-31T07:13:34;5.07;;;2.78;;
12476;SDS011;6303;51.504;6.300;2023-07-31T07:16:02;4.63;;;3.00;;
12476;SDS011;6303;51.504;6.300;2023-07-31T07:18:29;3.97;;;2.78;;
12476;SDS011;6303;51.504;6.300;2023-07-31T07:20:56;4.18;;;2.78;;
12476;SDS011;6303;51.504;6.300;2023-07-31T07:23:23;3.30;;;2.55;;
12476;SDS011;6303;51.504;6.300;2023-07-31T07:25:52;3.72;;;2.78;;
12476;SDS011;6303;51.504;6.300;2023-07-31T07:28:20;4.43;;;2.88;;
12476;SDS011;6303;51.504;6.300;2023-07-31T07:30:50;3.42;;;2.47;;
12476;SDS011;6303;51.504;6.300;2023-07-31T07:33:18;5.20;;;2.80;;
12476;SDS011;6303;51.504;6.300;2023-07-31T07:35:45;5.28;;;2.63;;
12476;SDS011;6303;51.504;6.300;2023-07-31T07:38:13;3.13;;;2.63;;
12476;SDS011;6303;51.504;6.300;2023-07-31T07:40:40;3.60;;;2.40;;
12476;SDS011;6303;51.504;6.300;2023-07-31T07:43:09;4.13;;;2.60;;
12476;SDS011;6303;51.504;6.300;2023-07-31T07:45:36;3.33;;;2.47;;
12476;SDS011;6303;51.504;6.300;2023-07-31T07:48:03;3.72;;;2.65;;
12476;SDS011;6303;51.504;6.300;2023-07-31T07:50:30;4.63;;;2.88;;
12476;SDS011;6303;51.504;6.300;2023-07-31T07:52:58;3.53;;;2.60;;
12476;SDS011;6303;51.504;6.300;2023-07-31T07:55:25;2.83;;;2.17;;
12476;SDS011;6303;51.504;6.300;2023-07-31T07:57:52;3.28;;;2.30;;
12476;SDS011;6303;51.504;6.300;2023-07-31T08:00:20;3.08;;;2.08;;
12476;SDS011;6303;51.504;6.300;2023-07-31T08:02:47;3.15;;;2.42;;
12476;SDS011;6303;51.504;6.300;2023-07-31T08:05:15;3.13;;;2.28;;
12476;SDS011;6303;51.504;6.300;2023-07-31T08:07:42;2.97;;;2.38;;
12476;SDS011;6303;51.504;6.300;2023-07-31T08:10:09;3.58;;;2.50;;
12476;SDS011;6303;51.504;6.300;2023-07-31T08:12:36;2.70;;;2.13;;
12476;SDS011;6303;51.504;6.300;2023-07-31T08:15:04;2.70;;;2.10;;
12476;SDS011;6303;51.504;6.300;2023-07-31T08:17:33;3.10;;;1.90;;
12476;SDS011;6303;51.504;6.300;2023-07-31T08:20:00;2.97;;;2.10;;
12476;SDS011;6303;51.504;6.300;2023-07-31T08:22:27;2.95;;;2.47;;
12476;SDS011;6303;51.504;6.300;2023-07-31T08:24:54;3.00;;;2.20;;
12476;SDS011;6303;51.504;6.300;2023-07-31T08:27:21;2.55;;;2.00;;
12476;SDS011;6303;51.504;6.300;2023-07-31T08:29:48;2.33;;;2.10;;
12476;SDS011;6303;51.504;6.300;2023-07-31T08:32:15;2.00;;;1.90;;
12476;SDS011;6303;51.504;6.300;2023-07-31T08:34:44;2.20;;;2.00;;
12476;SDS011;6303;51.504;6.300;2023-07-31T08:37:11;3.03;;;2.00;;
12476;SDS011;6303;51.504;6.300;2023-07-31T08:39:38;3.83;;;2.00;;
12476;SDS011;6303;51.504;6.300;2023-07-31T08:42:07;2.35;;;2.05;;
12476;SDS011;6303;51.504;6.300;2023-07-31T08:44:35;3.33;;;2.00;;
12476;SDS011;6303;51.504;6.300;2023-07-31T08:47:03;2.40;;;2.20;;
12476;SDS011;6303;51.504;6.300;2023-07-31T08:49:31;2.10;;;1.90;;
12476;SDS011;6303;51.504;6.300;2023-07-31T08:52:01;1.77;;;1.67;;
12476;SDS011;6303;51.504;6.300;2023-07-31T08:54:29;2.72;;;1.90;;
12476;SDS011;6303;51.504;6.300;2023-07-31T08:56:57;2.75;;;2.05;;
12476;SDS011;6303;51.504;6.300;2023-07-31T08:59:25;2.00;;;1.70;;
12476;SDS011;6303;51.504;6.300;2023-07-31T09:01:55;2.47;;;1.92;;
12476;SDS011;6303;51.504;6.300;2023-07-31T09:04:24;2.08;;;1.88;;
12476;SDS011;6303;51.504;6.300;2023-07-31T09:06:52;2.40;;;2.20;;
12476;SDS011;6303;51.504;6.300;2023-07-31T09:09:27;3.10;;;2.28;;
12476;SDS011;6303;51.504;6.300;2023-07-31T09:11:54;2.95;;;2.15;;
12476;SDS011;6303;51.504;6.300;2023-07-31T09:14:22;4.28;;;2.40;;
12476;SDS011;6303;51.504;6.300;2023-07-31T09:16:52;2.70;;;2.50;;
12476;SDS011;6303;51.504;6.300;2023-07-31T09:19:26;2.60;;;2.40;;
12476;SDS011;6303;51.504;6.300;2023-07-31T09:21:55;4.00;;;2.47;;
12476;SDS011;6303;51.504;6.300;2023-07-31T09:24:26;2.53;;;2.33;;
12476;SDS011;6303;51.504;6.300;2023-07-31T09:26:55;3.33;;;2.30;;
12476;SDS011;6303;51.504;6.300;2023-07-31T09:29:24;3.00;;;2.47;;
12476;SDS011;6303;51.504;6.300;2023-07-31T09:31:52;3.65;;;2.30;;
12476;SDS011;6303;51.504;6.300;2023-07-31T09:34:19;2.95;;;2.45;;
12476;SDS011;6303;51.504;6.300;2023-07-31T09:36:54;3.67;;;2.70;;
12476;SDS011;6303;51.504;6.300;2023-07-31T09:39:22;3.55;;;2.47;;
12476;SDS011;6303;51.504;6.300;2023-07-31T09:41:54;4.07;;;3.08;;
12476;SDS011;6303;51.504;6.300;2023-07-31T09:44:22;2.75;;;2.33;;
12476;SDS011;6303;51.504;6.300;2023-07-31T09:47:04;2.70;;;2.40;;
12476;SDS011;6303;51.504;6.300;2023-07-31T09:49:32;3.65;;;2.35;;
12476;SDS011;6303;51.504;6.300;2023-07-31T09:51:59;3.55;;;2.78;;
12476;SDS011;6303;51.504;6.300;2023-07-31T09:54:26;2.35;;;2.10;;
12476;SDS011;6303;51.504;6.300;2023-07-31T09:56:54;2.60;;;2.10;;
12476;SDS011;6303;51.504;6.300;2023-07-31T09:59:24;2.78;;;2.10;;
12476;SDS011;6303;51.504;6.300;2023-07-31T10:01:52;2.90;;;2.20;;
12476;SDS011;6303;51.504;6.300;2023-07-31T10:04:21;2.90;;;2.17;;
12476;SDS011;6303;51.504;6.300;2023-07-31T10:06:54;2.40;;;2.15;;
12476;SDS011;6303;51.504;6.300;2023-07-31T10:09:21;4.07;;;2.53;;
12476;SDS011;6303;51.504;6.300;2023-07-31T10:11:53;2.28;;;1.92;;
12476;SDS011;6303;51.504;6.300;2023-07-31T10:14:26;2.28;;;1.75;;
12476;SDS011;6303;51.504;6.300;2023-07-31T10:16:54;2.35;;;2.15;;
12476;SDS011;6303;51.504;6.300;2023-07-31T10:19:22;2.25;;;2.00;;
12476;SDS011;6303;51.504;6.300;2023-07-31T10:21:49;3.00;;;2.08;;
12476;SDS011;6303;51.504;6.300;2023-07-31T10:24:17;3.47;;;2.05;;
12476;SDS011;6303;51.504;6.300;2023-07-31T10:26:45;2.33;;;1.98;;
12476;SDS011;6303;51.504;6.300;2023-07-31T10:29:16;2.80;;;2.03;;
12476;SDS011;6303;51.504;6.300;2023-07-31T10:31:45;2.17;;;1.98;;
12476;SDS011;6303;51.504;6.300;2023-07-31T10:34:14;2.22;;;1.80;;
12476;SDS011;6303;51.504;6.300;2023-07-31T10:36:41;2.30;;;2.00;;
12476;SDS011;6303;51.504;6.300;2023-07-31T10:42:09;2.47;;;2.00;;
12476;SDS011;6303;51.504;6.300;2023-07-31T10:44:38;2.15;;;1.95;;
12476;SDS011;6303;51.504;6.300;2023-07-31T10:47:09;2.15;;;1.70;;
12476;SDS011;6303;51.504;6.300;2023-07-31T10:49:40;3.08;;;1.98;;
12476;SDS011;6303;51.504;6.300;2023-07-31T10:52:10;2.10;;;1.90;;
12476;SDS011;6303;51.504;6.300;2023-07-31T10:54:39;2.10;;;2.00;;
12476;SDS011;6303;51.504;6.300;2023-07-31T10:57:18;2.85;;;2.00;;
12476;SDS011;6303;51.504;6.300;2023-07-31T10:59:48;2.20;;;2.00;;
12476;SDS011;6303;51.504;6.300;2023-07-31T11:02:25;2.13;;;1.92;;
12476;SDS011;6303;51.504;6.300;2023-07-31T11:05:07;1.98;;;1.77;;
12476;SDS011;6303;51.504;6.300;2023-07-31T11:07:48;3.67;;;2.30;;
12476;SDS011;6303;51.504;6.300;2023-07-31T11:10:18;2.20;;;2.00;;
12476;SDS011;6303;51.504;6.300;2023-07-31T11:12:45;2.00;;;1.77;;
12476;SDS011;6303;51.504;6.300;2023-07-31T11:15:14;2.85;;;2.20;;
12476;SDS011;6303;51.504;6.300;2023-07-31T11:17:41;2.58;;;1.88;;
12476;SDS011;6303;51.504;6.300;2023-07-31T11:20:08;3.42;;;1.90;;
12476;SDS011;6303;51.504;6.300;2023-07-31T11:22:36;3.63;;;2.15;;
12476;SDS011;6303;51.504;6.300;2023-07-31T11:25:03;2.10;;;1.90;;
12476;SDS011;6303;51.504;6.300;2023-07-31T11:27:31;2.45;;;1.98;;
12476;SDS011;6303;51.504;6.300;2023-07-31T11:30:06;2.00;;;1.70;;
12476;SDS011;6303;51.504;6.300;2023-07-31T11:32:37;2.72;;;1.75;;
12476;SDS011;6303;51.504;6.300;2023-07-31T11:35:04;3.13;;;1.80;;
12476;SDS011;6303;51.504;6.300;2023-07-31T11:37:39;3.13;;;1.85;;
12476;SDS011;6303;51.504;6.300;2023-07-31T11:40:07;3.30;;;1.83;;
12476;SDS011;6303;51.504;6.300;2023-07-31T11:42:35;1.90;;;1.73;;
12476;SDS011;6303;51.504;6.300;2023-07-31T11:45:02;2.38;;;1.75;;
12476;SDS011;6303;51.504;6.300;2023-07-31T11:47:30;1.73;;;1.60;;
12476;SDS011;6303;51.504;6.300;2023-07-31T11:50:02;2.60;;;1.80;;
12476;SDS011;6303;51.504;6.300;2023-07-31T11:52:30;2.60;;;1.90;;
12476;SDS011;6303;51.504;6.300;2023-07-31T11:55:00;3.00;;;1.90;;
12476;SDS011;6303;51.504;6.300;2023-07-31T11:57:27;2.33;;;2.13;;
12476;SDS011;6303;51.504;6.300;2023-07-31T11:59:55;1.85;;;1.67;;
12476;SDS011;6303;51.504;6.300;2023-07-31T12:02:23;2.45;;;1.63;;
12476;SDS011;6303;51.504;6.300;2023-07-31T12:04:50;2.72;;;1.80;;
12476;SDS011;6303;51.504;6.300;2023-07-31T12:07:19;1.98;;;1.50;;
12476;SDS011;6303;51.504;6.300;2023-07-31T12:09:52;2.65;;;1.80;;
12476;SDS011;6303;51.504;6.300;2023-07-31T12:12:19;1.70;;;1.60;;
12476;SDS011;6303;51.504;6.300;2023-07-31T12:14:47;1.90;;;1.80;;
12476;SDS011;6303;51.504;6.300;2023-07-31T12:17:16;2.17;;;1.80;;
12476;SDS011;6303;51.504;6.300;2023-07-31T12:19:45;1.80;;;1.70;;
12476;SDS011;6303;51.504;6.300;2023-07-31T12:22:12;1.90;;;1.67;;
12476;SDS011;6303;51.504;6.300;2023-07-31T12:24:41;2.85;;;1.50;;
12476;SDS011;6303;51.504;6.300;2023-07-31T12:27:10;3.33;;;1.70;;
12476;SDS011;6303;51.504;6.300;2023-07-31T12:29:38;2.90;;;1.50;;
12476;SDS011;6303;51.504;6.300;2023-07-31T12:32:18;2.83;;;1.55;;
12476;SDS011;6303;51.504;6.300;2023-07-31T12:34:49;2.38;;;1.65;;
12476;SDS011;6303;51.504;6.300;2023-07-31T12:37:16;2.28;;;1.42;;
12476;SDS011;6303;51.504;6.300;2023-07-31T12:39:44;2.75;;;1.63;;
12476;SDS011;6303;51.504;6.300;2023-07-31T12:42:11;3.30;;;1.70;;
12476;SDS011;6303;51.504;6.300;2023-07-31T12:44:38;2.85;;;1.60;;
12476;SDS011;6303;51.504;6.300;2023-07-31T12:47:05;3.63;;;1.48;;
12476;SDS011;6303;51.504;6.300;2023-07-31T12:49:32;1.98;;;1.55;;
12476;SDS011;6303;51.504;6.300;2023-07-31T12:51:59;3.58;;;1.50;;
12476;SDS011;6303;51.504;6.300;2023-07-31T12:54:26;1.90;;;1.67;;
12476;SDS011;6303;51.504;6.300;2023-07-31T12:56:55;1.80;;;1.38;;
12476;SDS011;6303;51.504;6.300;2023-07-31T12:59:22;1.90;;;1.52;;
12476;SDS011;6303;51.504;6.300;2023-07-31T13:01:49;2.60;;;1.70;;
12476;SDS011;6303;51.504;6.300;2023-07-31T13:04:16;1.60;;;1.50;;
12476;SDS011;6303;51.504;6.300;2023-07-31T13:06:43;1.58;;;1.40;;
12476;SDS011;6303;51.504;6.300;2023-07-31T13:09:10;2.00;;;1.40;;
12476;SDS011;6303;51.504;6.300;2023-07-31T13:11:38;2.30;;;1.67;;
12476;SDS011;6303;51.504;6.300;2023-07-31T13:14:06;1.88;;;1.60;;
12476;SDS011;6303;51.504;6.300;2023-07-31T13:16:33;3.10;;;1.70;;
12476;SDS011;6303;51.504;6.300;2023-07-31T13:19:00;2.33;;;1.83;;
12476;SDS011;6303;51.504;6.300;2023-07-31T13:21:27;1.83;;;1.60;;
12476;SDS011;6303;51.504;6.300;2023-07-31T13:23:54;2.05;;;1.85;;
12476;SDS011;6303;51.504;6.300;2023-07-31T13:26:23;4.00;;;1.70;;
12476;SDS011;6303;51.504;6.300;2023-07-31T13:28:50;2.08;;;1.88;;
12476;SDS011;6303;51.504;6.300;2023-07-31T13:31:18;4.05;;;1.92;;
12476;SDS011;6303;51.504;6.300;2023-07-31T13:33:45;2.17;;;1.55;;
12476;SDS011;6303;51.504;6.300;2023-07-31T13:36:12;2.22;;;2.00;;
12476;SDS011;6303;51.504;6.300;2023-07-31T13:38:39;3.08;;;1.77;;
12476;SDS011;6303;51.504;6.300;2023-07-31T13:41:06;3.10;;;2.33;;
12476;SDS011;6303;51.504;6.300;2023-07-31T13:43:33;4.32;;;2.40;;
12476;SDS011;6303;51.504;6.300;2023-07-31T13:46:01;3.30;;;2.40;;
12476;SDS011;6303;51.504;6.300;2023-07-31T13:48:34;4.50;;;2.40;;
12476;SDS011;6303;51.504;6.300;2023-07-31T13:51:01;3.67;;;2.17;;
12476;SDS011;6303;51.504;6.300;2023-07-31T13:53:28;3.63;;;1.90;;
12476;SDS011;6303;51.504;6.300;2023-07-31T13:55:55;3.20;;;2.00;;
12476;SDS011;6303;51.504;6.300;2023-07-31T13:58:22;3.22;;;2.05;;
12476;SDS011;6303;51.504;6.300;2023-07-31T14:00:49;3.20;;;2.00;;
12476;SDS011;6303;51.504;6.300;2023-07-31T14:03:16;3.38;;;2.10;;
12476;SDS011;6303;51.504;6.300;2023-07-31T14:05:44;2.30;;;2.10;;
12476;SDS011;6303;51.504;6.300;2023-07-31T14:08:12;4.07;;;2.20;;
12476;SDS011;6303;51.504;6.300;2023-07-31T14:10:39;2.85;;;2.40;;
12476;SDS011;6303;51.504;6.300;2023-07-31T14:13:06;3.10;;;2.33;;
12476;SDS011;6303;51.504;6.300;2023-07-31T14:15:33;2.60;;;2.40;;
12476;SDS011;6303;51.504;6.300;2023-07-31T14:18:01;2.40;;;1.90;;
12476;SDS011;6303;51.504;6.300;2023-07-31T14:20:28;2.55;;;1.90;;
12476;SDS011;6303;51.504;6.300;2023-07-31T14:22:57;2.50;;;2.30;;
12476;SDS011;6303;51.504;6.300;2023-07-31T14:25:24;3.00;;;2.35;;
12476;SDS011;6303;51.504;6.300;2023-07-31T14:27:51;2.95;;;2.40;;
12476;SDS011;6303;51.504;6.300;2023-07-31T14:30:18;3.00;;;2.40;;
12476;SDS011;6303;51.504;6.300;2023-07-31T14:32:45;3.78;;;2.60;;
12476;SDS011;6303;51.504;6.300;2023-07-31T14:35:13;2.45;;;2.22;;
12476;SDS011;6303;51.504;6.300;2023-07-31T14:37:40;2.83;;;2.53;;
12476;SDS011;6303;51.504;6.300;2023-07-31T14:40:10;3.15;;;2.40;;
12476;SDS011;6303;51.504;6.300;2023-07-31T14:42:38;3.25;;;2.70;;
12476;SDS011;6303;51.504;6.300;2023-07-31T14:45:06;4.05;;;2.72;;
12476;SDS011;6303;51.504;6.300;2023-07-31T14:47:35;3.85;;;2.75;;
12476;SDS011;6303;51.504;6.300;2023-07-31T14:50:02;2.40;;;2.20;;
12476;SDS011;6303;51.504;6.300;2023-07-31T14:52:30;3.28;;;2.20;;
12476;SDS011;6303;51.504;6.300;2023-07-31T14:54:57;2.33;;;2.13;;
12476;SDS011;6303;51.504;6.300;2023-07-31T14:57:25;3.25;;;2.40;;
12476;SDS011;6303;51.504;6.300;2023-07-31T14:59:52;3.03;;;2.28;;
12476;SDS011;6303;51.504;6.300;2023-07-31T15:02:19;3.92;;;2.47;;
12476;SDS011;6303;51.504;6.300;2023-07-31T15:04:46;2.60;;;2.40;;
12476;SDS011;6303;51.504;6.300;2023-07-31T15:07:13;3.33;;;2.45;;
12476;SDS011;6303;51.504;6.300;2023-07-31T15:09:40;2.88;;;2.35;;